createdAt,value
2023-02-11T00:00:42.579Z,102364.09
2023-02-11T00:03:45.204Z,102370.25
2023-02-11T00:06:47.899Z,102378.47
2023-02-11T00:09:50.551Z,102367.13
2023-02-11T00:12:54.074Z,102371.38
2023-02-11T00:15:56.724Z,102356.00
2023-02-11T00:19:02.939Z,102354.25
2023-02-11T00:22:08.419Z,102364.78
2023-02-11T00:25:32.014Z,102345.13
2023-02-11T00:28:34.584Z,102368.50
2023-02-11T00:31:37.276Z,102368.50
2023-02-11T00:34:41.254Z,102360.59
2023-02-11T00:37:43.847Z,102366.09
2023-02-11T00:40:46.492Z,102362.06
2023-02-11T00:43:49.528Z,102343.25
2023-02-11T00:46:54.614Z,102356.28
2023-02-11T00:49:59.288Z,102351.06
2023-02-11T00:53:05.866Z,102339.91
2023-02-11T00:56:11.528Z,102335.25
2023-02-11T00:59:17.236Z,102328.72
2023-02-11T01:02:19.847Z,102305.06
2023-02-11T01:05:22.557Z,102296.13
2023-02-11T01:08:25.324Z,102330.78
2023-02-11T01:11:30.990Z,102314.78
2023-02-11T01:14:33.595Z,102310.66
2023-02-11T01:17:36.360Z,102274.34
2023-02-11T01:20:39.025Z,102298.00
2023-02-11T01:23:41.671Z,102290.91
2023-02-11T01:26:44.208Z,102290.91
2023-02-11T01:29:46.786Z,102280.47
2023-02-11T01:32:49.339Z,102285.06
2023-02-11T01:35:54.839Z,102269.41
2023-02-11T01:38:57.342Z,102279.28
2023-02-11T01:41:59.998Z,102278.81
2023-02-11T01:45:23.332Z,102276.66
2023-02-11T01:48:38.962Z,102259.78
2023-02-11T01:51:47.088Z,102267.25
2023-02-11T01:55:14.241Z,102260.00
2023-02-11T01:58:16.866Z,102243.75
2023-02-11T02:01:24.687Z,102262.50
2023-02-11T02:04:31.797Z,102232.56
2023-02-11T02:07:45.740Z,102271.72
2023-02-11T02:10:54.761Z,102241.75
2023-02-11T02:13:57.504Z,102266.25
2023-02-11T02:17:00.112Z,102265.09
2023-02-11T02:20:32.402Z,102247.81
2023-02-11T02:23:53.074Z,102258.75
2023-02-11T02:27:16.399Z,102256.78
2023-02-11T02:30:21.952Z,102254.69
2023-02-11T02:33:29.819Z,102255.22
2023-02-11T02:36:54.825Z,102228.50
2023-02-11T02:39:59.804Z,102236.97
2023-02-11T02:43:03.167Z,102231.59
2023-02-11T02:46:24.284Z,102225.44
2023-02-11T02:49:26.875Z,102238.84
2023-02-11T02:52:39.941Z,102203.28
2023-02-11T02:55:48.728Z,102236.16
2023-02-11T02:58:51.352Z,102250.38
2023-02-11T03:02:24.467Z,102247.69
2023-02-11T03:05:52.076Z,102247.84
2023-02-11T03:09:14.750Z,102246.16
2023-02-11T03:12:17.873Z,102241.47
2023-02-11T03:15:22.699Z,102241.31
2023-02-11T03:18:28.366Z,102240.91
2023-02-11T03:21:36.577Z,102240.84
2023-02-11T03:24:42.681Z,102231.94
2023-02-11T03:28:06.113Z,102228.50
2023-02-11T03:31:55.331Z,102221.47
2023-02-11T03:35:02.106Z,102222.38
2023-02-11T03:38:16.121Z,102218.56
2023-02-11T03:41:21.579Z,102218.00
2023-02-11T03:44:25.476Z,102226.88
2023-02-11T03:47:30.477Z,102224.81
2023-02-11T03:50:34.051Z,102217.84
2023-02-11T03:53:39.048Z,102207.31
2023-02-11T03:56:52.658Z,102169.63
2023-02-11T03:59:59.499Z,102198.56
2023-02-11T04:03:02.701Z,102190.66
2023-02-11T04:06:05.784Z,102177.81
2023-02-11T04:09:08.968Z,102194.53
2023-02-11T04:12:11.599Z,102172.03
2023-02-11T04:15:14.682Z,102179.34
2023-02-11T04:18:17.378Z,102174.88
2023-02-11T04:21:20.085Z,102165.97
2023-02-11T04:24:22.731Z,102165.75
2023-02-11T04:27:25.434Z,102171.16
2023-02-11T04:30:28.026Z,102157.94
2023-02-11T04:33:30.565Z,102160.25
2023-02-11T04:36:33.052Z,102143.81
2023-02-11T04:39:35.874Z,102150.97
2023-02-11T04:42:38.451Z,102116.38
2023-02-11T04:45:41.031Z,102146.00
2023-02-11T04:48:43.833Z,102145.28
2023-02-11T04:51:49.207Z,102136.88
2023-02-11T04:54:52.104Z,102130.53
2023-02-11T04:57:55.491Z,102144.88
2023-02-11T05:01:10.046Z,102147.66
2023-02-11T05:04:12.822Z,102124.97
2023-02-11T05:07:15.377Z,102135.00
2023-02-11T05:10:18.171Z,102134.59
2023-02-11T05:13:20.715Z,102137.44
2023-02-11T05:16:23.388Z,102128.78
2023-02-11T05:19:26.038Z,102138.41
2023-02-11T05:22:28.671Z,102142.59
2023-02-11T05:25:31.291Z,102151.44
2023-02-11T05:28:33.952Z,102144.63
2023-02-11T05:31:36.593Z,102153.31
2023-02-11T05:34:39.192Z,102149.34
2023-02-11T05:37:41.791Z,102135.34
2023-02-11T05:40:44.808Z,102148.19
2023-02-11T05:43:53.686Z,102167.41
2023-02-11T05:46:56.415Z,102164.69
2023-02-11T05:49:59.034Z,102156.66
2023-02-11T05:53:01.686Z,102155.31
2023-02-11T05:56:04.573Z,102161.81
2023-02-11T05:59:07.155Z,102174.59
2023-02-11T06:02:10.700Z,102156.91
2023-02-11T06:05:13.340Z,102162.09
2023-02-11T06:08:16.016Z,102165.06
2023-02-11T06:11:18.877Z,102148.66
2023-02-11T06:14:21.411Z,102156.59
2023-02-11T06:17:23.950Z,102166.25
2023-02-11T06:20:26.579Z,102165.78
2023-02-11T06:23:30.452Z,102148.09
2023-02-11T06:26:33.159Z,102144.53
2023-02-11T06:29:36.034Z,102134.16
2023-02-11T06:32:44.521Z,102158.28
2023-02-11T06:35:47.701Z,102157.91
2023-02-11T06:38:50.519Z,102140.91
2023-02-11T06:41:53.115Z,102161.56
2023-02-11T06:44:55.640Z,102155.09
2023-02-11T06:47:58.201Z,102151.88
2023-02-11T06:51:05.710Z,102153.53
2023-02-11T06:54:08.492Z,102161.53
2023-02-11T06:57:10.966Z,102147.03
2023-02-11T07:00:14.177Z,102145.22
2023-02-11T07:03:16.835Z,102141.78
2023-02-11T07:06:22.293Z,102130.47
2023-02-11T07:09:24.826Z,102132.41
2023-02-11T07:12:27.451Z,102138.91
2023-02-11T07:15:30.043Z,102138.06
2023-02-11T07:18:32.716Z,102135.19
2023-02-11T07:21:35.255Z,102142.72
2023-02-11T07:24:37.767Z,102143.69
2023-02-11T07:27:40.314Z,102132.25
2023-02-11T07:30:42.972Z,102138.19
2023-02-11T07:33:46.194Z,102135.66
2023-02-11T07:36:49.218Z,102134.81
2023-02-11T07:39:51.823Z,102135.84
2023-02-11T07:42:54.328Z,102129.31
2023-02-11T07:45:56.893Z,102087.00
2023-02-11T07:48:59.420Z,102137.50
2023-02-11T07:52:01.959Z,102120.56
2023-02-11T07:55:05.063Z,102129.78
2023-02-11T07:58:07.753Z,102129.66
2023-02-11T08:01:17.458Z,102125.16
2023-02-11T08:04:20.099Z,102109.47
2023-02-11T08:07:22.744Z,102110.22
2023-02-11T08:10:28.271Z,102112.44
2023-02-11T08:13:30.982Z,102124.34
2023-02-11T08:16:35.872Z,102122.03
2023-02-11T08:19:39.841Z,102115.84
2023-02-11T08:22:42.416Z,102115.56
2023-02-11T08:25:45.046Z,102116.19
2023-02-11T08:28:50.255Z,102120.63
2023-02-11T08:31:52.833Z,102120.34
2023-02-11T08:34:55.359Z,102111.13
2023-02-11T08:37:58.023Z,102112.38
2023-02-11T08:41:00.887Z,102110.34
2023-02-11T08:44:03.557Z,102099.50
2023-02-11T08:47:06.120Z,102103.53
2023-02-11T08:50:09.284Z,102096.72
2023-02-11T08:53:11.843Z,102096.78
2023-02-11T08:56:16.328Z,102102.03
2023-02-11T08:59:18.896Z,102091.63
2023-02-11T09:02:21.598Z,102095.41
2023-02-11T09:05:24.555Z,102091.56
2023-02-11T09:08:27.232Z,102074.97
2023-02-11T09:11:32.672Z,102100.19
2023-02-11T09:14:35.304Z,102099.53
2023-02-11T09:17:37.894Z,102088.22
2023-02-11T09:20:40.518Z,102101.78
2023-02-11T09:23:47.949Z,102090.09
2023-02-11T09:26:50.576Z,102098.47
2023-02-11T09:29:53.204Z,102100.59
2023-02-11T09:32:55.733Z,102100.13
2023-02-11T09:36:01.893Z,102088.47
2023-02-11T09:39:06.045Z,102082.50
2023-02-11T09:42:46.072Z,102090.38
2023-02-11T09:45:49.894Z,102070.63
2023-02-11T09:48:54.759Z,102072.03
2023-02-11T09:52:09.583Z,102078.16
2023-02-11T09:55:34.197Z,102059.91
2023-02-11T09:58:39.211Z,102065.19
2023-02-11T10:01:49.022Z,102064.63
2023-02-11T10:05:05.237Z,102043.38
2023-02-11T10:08:40.712Z,102055.44
2023-02-11T10:12:12.348Z,102045.72
2023-02-11T10:15:48.369Z,102041.56
2023-02-11T10:19:00.421Z,102028.88
2023-02-11T10:22:23.140Z,102016.78
2023-02-11T10:25:38.854Z,102021.78
2023-02-11T10:28:44.601Z,102022.78
2023-02-11T10:31:48.299Z,102012.00
2023-02-11T10:34:52.380Z,102018.25
2023-02-11T10:37:56.109Z,102016.72
2023-02-11T10:40:58.778Z,102016.19
2023-02-11T10:44:01.831Z,102008.28
2023-02-11T10:47:13.032Z,101989.50
2023-02-11T10:50:29.917Z,102001.09
2023-02-11T10:53:33.814Z,101999.88
2023-02-11T10:56:38.313Z,101997.38
2023-02-11T10:59:40.923Z,101962.75
2023-02-11T11:02:44.633Z,101981.59
2023-02-11T11:05:57.415Z,101971.34
2023-02-11T11:09:04.754Z,101984.78
2023-02-11T11:12:25.504Z,101979.66
2023-02-11T11:15:32.704Z,101959.56
2023-02-11T11:18:35.782Z,101949.59
2023-02-11T11:21:50.465Z,101970.50
2023-02-11T11:24:55.339Z,101979.91
2023-02-11T11:28:01.390Z,101984.72
2023-02-11T11:31:04.184Z,101962.19
2023-02-11T11:34:29.914Z,101970.94
2023-02-11T11:37:34.583Z,101988.50
2023-02-11T11:40:37.615Z,101952.13
2023-02-11T11:44:14.660Z,101958.34
2023-02-11T11:47:25.637Z,101958.03
2023-02-11T11:50:35.259Z,101941.81
2023-02-11T11:53:51.453Z,101940.91
2023-02-11T11:57:00.076Z,101927.72
2023-02-11T12:00:02.772Z,101941.91
2023-02-11T12:03:39.694Z,101927.59
2023-02-11T12:06:47.949Z,101919.50
2023-02-11T12:10:11.955Z,101910.44
2023-02-11T12:13:29.751Z,101906.38
2023-02-11T12:16:35.293Z,101898.84
2023-02-11T12:20:02.268Z,101895.50
2023-02-11T12:23:25.790Z,101900.47
2023-02-11T12:26:42.136Z,101885.25
2023-02-11T12:30:03.303Z,101874.34
2023-02-11T12:33:26.153Z,101869.84
2023-02-11T12:36:47.379Z,101842.53
2023-02-11T12:40:11.242Z,101857.16
2023-02-11T12:43:35.588Z,101839.59
2023-02-11T12:47:03.210Z,101838.38
2023-02-11T12:50:30.166Z,101830.19
2023-02-11T12:53:39.110Z,101818.75
2023-02-11T12:56:47.920Z,101807.75
2023-02-11T13:00:12.774Z,101810.75
2023-02-11T13:03:32.854Z,101796.28
2023-02-11T13:06:40.418Z,101795.53
2023-02-11T13:09:48.945Z,101801.50
2023-02-11T13:13:11.532Z,101786.00
2023-02-11T13:16:37.550Z,101802.25
2023-02-11T13:20:02.884Z,101784.66
2023-02-11T13:23:10.202Z,101789.09
2023-02-11T13:26:27.766Z,101798.78
2023-02-11T13:30:04.429Z,101785.88
2023-02-11T13:33:17.750Z,101774.16
2023-02-11T13:36:28.877Z,101777.13
2023-02-11T13:39:31.496Z,101771.28
2023-02-11T13:42:47.828Z,101754.56
2023-02-11T13:46:00.154Z,101768.16
2023-02-11T13:49:02.805Z,101767.13
2023-02-11T13:52:16.613Z,101774.44
2023-02-11T13:55:23.653Z,101772.66
2023-02-11T13:58:29.281Z,101775.47
2023-02-11T14:02:17.852Z,101776.59
2023-02-11T14:05:48.232Z,101775.69
2023-02-11T14:09:10.523Z,101777.66
2023-02-11T14:12:22.543Z,101754.72
2023-02-11T14:15:38.210Z,101772.69
2023-02-11T14:18:52.001Z,101772.44
2023-02-11T14:22:02.374Z,101760.75
2023-02-11T14:25:16.208Z,101762.28
2023-02-11T14:28:26.881Z,101736.78
2023-02-11T14:31:34.246Z,101735.50
2023-02-11T14:35:44.660Z,101742.81
2023-02-11T14:39:06.628Z,101743.22
2023-02-11T14:42:19.981Z,101764.09
2023-02-11T14:45:30.527Z,101766.81
2023-02-11T14:48:38.305Z,101743.22
2023-02-11T14:51:44.183Z,101761.38
2023-02-11T14:54:49.312Z,101747.13
2023-02-11T14:58:28.077Z,101781.88
2023-02-11T15:01:40.838Z,101762.78
2023-02-11T15:04:44.057Z,101757.59
2023-02-11T15:07:51.915Z,101757.22
2023-02-11T15:10:55.508Z,101723.78
2023-02-11T15:14:01.940Z,101727.25
2023-02-11T15:17:09.425Z,101733.31
2023-02-11T15:20:26.861Z,101737.78
2023-02-11T15:23:33.446Z,101736.31
2023-02-11T15:26:36.254Z,101712.47
2023-02-11T15:29:41.782Z,101703.31
2023-02-11T15:32:53.254Z,101722.94
2023-02-11T15:35:57.023Z,101726.28
2023-02-11T15:39:42.227Z,101723.97
2023-02-11T15:43:14.223Z,101720.22
2023-02-11T15:46:37.913Z,101715.28
2023-02-11T15:49:45.431Z,101714.31
2023-02-11T15:53:00.165Z,101703.47
2023-02-11T15:56:25.414Z,101701.25
2023-02-11T15:59:36.255Z,101711.88
2023-02-11T16:02:45.288Z,101714.50
2023-02-11T16:05:47.929Z,101698.66
2023-02-11T16:09:22.149Z,101720.22
2023-02-11T16:12:27.283Z,101723.25
2023-02-11T16:15:30.655Z,101717.47
2023-02-11T16:18:52.024Z,101716.34
2023-02-11T16:22:07.981Z,101707.34
2023-02-11T16:25:19.279Z,101718.22
2023-02-11T16:28:22.183Z,101711.16
2023-02-11T16:31:33.465Z,101704.75
2023-02-11T16:34:41.705Z,101702.13
2023-02-11T16:37:44.425Z,101716.38
2023-02-11T16:40:49.464Z,101705.72
2023-02-11T16:43:52.378Z,101709.34
2023-02-11T16:47:01.658Z,101701.84
2023-02-11T16:50:08.564Z,101698.13
2023-02-11T16:53:11.733Z,101691.38
2023-02-11T16:56:19.299Z,101685.72
2023-02-11T16:59:22.023Z,101667.47
2023-02-11T17:02:32.253Z,101674.47
2023-02-11T17:05:53.216Z,101672.38
2023-02-11T17:08:57.709Z,101678.25
2023-02-11T17:12:00.553Z,101666.34
2023-02-11T17:15:06.632Z,101672.44
2023-02-11T17:18:14.755Z,101672.16
2023-02-11T17:21:29.861Z,101673.69
2023-02-11T17:24:32.743Z,101678.03
2023-02-11T17:27:38.612Z,101668.78
2023-02-11T17:30:44.251Z,101678.16
2023-02-11T17:33:56.668Z,101668.03
2023-02-11T17:37:00.349Z,101673.16
2023-02-11T17:40:03.208Z,101659.31
2023-02-11T17:43:08.117Z,101668.69
2023-02-11T17:46:13.110Z,101657.34
2023-02-11T17:49:23.671Z,101654.69
2023-02-11T17:52:28.284Z,101661.03
2023-02-11T17:55:34.873Z,101649.69
2023-02-11T17:58:37.533Z,101661.59
2023-02-11T18:01:42.399Z,101663.06
2023-02-11T18:04:45.316Z,101666.97
2023-02-11T18:07:48.855Z,101637.44
2023-02-11T18:10:51.524Z,101644.88
2023-02-11T18:14:02.366Z,101664.00
2023-02-11T18:17:07.696Z,101659.44
2023-02-11T18:20:10.848Z,101659.03
2023-02-11T18:23:13.606Z,101670.94
2023-02-11T18:26:18.325Z,101667.06
2023-02-11T18:29:23.596Z,101661.13
2023-02-11T18:32:27.063Z,101665.16
2023-02-11T18:35:32.006Z,101665.97
2023-02-11T18:38:35.676Z,101667.06
2023-02-11T18:41:40.774Z,101646.19
2023-02-11T18:44:43.513Z,101639.97
2023-02-11T18:47:46.244Z,101643.19
2023-02-11T18:50:48.984Z,101650.09
2023-02-11T18:53:51.590Z,101634.53
2023-02-11T18:56:56.652Z,101655.53
2023-02-11T18:59:59.360Z,101663.31
2023-02-11T19:03:05.180Z,101656.69
2023-02-11T19:06:13.120Z,101664.84
2023-02-11T19:09:18.125Z,101653.94
2023-02-11T19:12:21.046Z,101655.66
2023-02-11T19:15:23.835Z,101660.50
2023-02-11T19:18:27.636Z,101663.13
2023-02-11T19:21:30.604Z,101656.47
2023-02-11T19:24:33.986Z,101663.53
2023-02-11T19:27:37.028Z,101664.75
2023-02-11T19:30:40.446Z,101658.69
2023-02-11T19:33:43.479Z,101668.34
2023-02-11T19:36:46.647Z,101673.19
2023-02-11T19:39:49.471Z,101681.47
2023-02-11T19:42:52.318Z,101667.38
2023-02-11T19:45:56.790Z,101684.09
2023-02-11T19:49:00.899Z,101687.16
2023-02-11T19:52:03.691Z,101693.53
2023-02-11T19:55:07.155Z,101687.59
2023-02-11T19:58:09.736Z,101690.94
2023-02-11T20:01:16.564Z,101690.50
2023-02-11T20:04:19.923Z,101681.09
2023-02-11T20:07:28.215Z,101675.44
2023-02-11T20:10:31.001Z,101679.00
2023-02-11T20:13:34.322Z,101670.56
2023-02-11T20:16:48.074Z,101663.09
2023-02-11T20:19:51.789Z,101651.22
2023-02-11T20:22:54.508Z,101681.50
2023-02-11T20:25:57.354Z,101677.88
2023-02-11T20:29:03.850Z,101666.47
2023-02-11T20:32:07.594Z,101684.66
2023-02-11T20:35:13.547Z,101674.66
2023-02-11T20:38:16.643Z,101670.66
2023-02-11T20:41:28.614Z,101662.91
2023-02-11T20:44:31.445Z,101668.81
2023-02-11T20:47:34.218Z,101674.22
2023-02-11T20:50:37.079Z,101667.22
2023-02-11T20:53:44.064Z,101667.22
2023-02-11T20:56:48.226Z,101655.47
2023-02-11T20:59:51.196Z,101674.22
2023-02-11T21:02:53.907Z,101668.81
2023-02-11T21:05:58.911Z,101675.63
2023-02-11T21:09:02.257Z,101663.31
2023-02-11T21:12:05.575Z,101669.28
2023-02-11T21:15:12.792Z,101671.16
2023-02-11T21:18:15.636Z,101662.03
2023-02-11T21:21:19.614Z,101670.44
2023-02-11T21:24:22.351Z,101653.13
2023-02-11T21:27:31.117Z,101660.44
2023-02-11T21:30:34.067Z,101657.63
2023-02-11T21:33:36.708Z,101658.00
2023-02-11T21:36:39.567Z,101658.84
2023-02-11T21:39:43.366Z,101644.56
2023-02-11T21:42:46.025Z,101667.91
2023-02-11T21:45:51.298Z,101668.41
2023-02-11T21:48:54.167Z,101663.78
2023-02-11T21:51:56.798Z,101657.16
2023-02-11T21:54:59.456Z,101660.72
2023-02-11T21:58:02.228Z,101667.38
2023-02-11T22:01:18.948Z,101669.72
2023-02-11T22:04:21.837Z,101667.38
2023-02-11T22:07:25.088Z,101658.50
2023-02-11T22:10:27.672Z,101674.03
2023-02-11T22:13:31.811Z,101655.84
2023-02-11T22:16:41.647Z,101667.56
2023-02-11T22:19:47.204Z,101682.59
2023-02-11T22:22:50.918Z,101677.31
2023-02-11T22:25:53.725Z,101686.19
2023-02-11T22:28:57.299Z,101683.91
2023-02-11T22:32:00.059Z,101677.94
2023-02-11T22:35:02.788Z,101655.81
2023-02-11T22:38:05.351Z,101681.75
2023-02-11T22:41:10.289Z,101685.44
2023-02-11T22:44:17.380Z,101700.59
2023-02-11T22:47:19.908Z,101686.69
2023-02-11T22:50:22.458Z,101695.66
2023-02-11T22:53:25.657Z,101698.53
2023-02-11T22:56:29.790Z,101687.97
2023-02-11T22:59:32.446Z,101696.44
2023-02-11T23:02:35.059Z,101688.31
2023-02-11T23:05:41.628Z,101687.84
2023-02-11T23:08:44.809Z,101690.97
2023-02-11T23:11:49.477Z,101697.97
2023-02-11T23:14:52.049Z,101683.53
2023-02-11T23:17:57.283Z,101673.38
2023-02-11T23:21:12.677Z,101679.34
2023-02-11T23:24:15.766Z,101680.09
2023-02-11T23:27:18.409Z,101681.50
2023-02-11T23:30:22.083Z,101683.16
2023-02-11T23:33:27.634Z,101681.00
2023-02-11T23:36:30.649Z,101670.56
2023-02-11T23:39:33.189Z,101687.38
2023-02-11T23:42:35.732Z,101692.41
2023-02-11T23:45:43.138Z,101676.16
2023-02-11T23:48:48.485Z,101675.38
2023-02-11T23:51:51.092Z,101689.28
2023-02-11T23:54:53.732Z,101699.69
2023-02-11T23:57:56.464Z,101684.94
